sensor_id;sensor_type;location;lat;lon;timestamp;P1;durP1;ratioP1;P2;durP2;ratioP2
11711;SDS011;5912;51.034;6.984;2024-03-02T00:00:03;1.65;;;1.10;;
11711;SDS011;5912;51.034;6.984;2024-03-02T00:02:39;1.40;;;1.20;;
11711;SDS011;5912;51.034;6.984;2024-03-02T00:05:08;2.17;;;1.25;;
11711;SDS011;5912;51.034;6.984;2024-03-02T00:07:36;1.92;;;1.10;;
11711;SDS011;5912;51.034;6.984;2024-03-02T00:10:05;1.60;;;1.00;;
11711;SDS011;5912;51.034;6.984;2024-03-02T00:12:35;1.20;;;1.10;;
11711;SDS011;5912;51.034;6.984;2024-03-02T00:15:01;1.15;;;1.00;;
11711;SDS011;5912;51.034;6.984;2024-03-02T00:17:27;1.50;;;1.20;;
11711;SDS011;5912;51.034;6.984;2024-03-02T00:19:54;1.25;;;0.95;;
11711;SDS011;5912;51.034;6.984;2024-03-02T00:22:20;1.35;;;1.10;;
11711;SDS011;5912;51.034;6.984;2024-03-02T00:24:45;1.90;;;1.15;;
11711;SDS011;5912;51.034;6.984;2024-03-02T00:27:12;1.25;;;1.10;;
11711;SDS011;5912;51.034;6.984;2024-03-02T00:29:40;1.20;;;1.10;;
11711;SDS011;5912;51.034;6.984;2024-03-02T00:32:10;1.92;;;1.33;;
11711;SDS011;5912;51.034;6.984;2024-03-02T00:34:39;1.10;;;0.93;;
11711;SDS011;5912;51.034;6.984;2024-03-02T00:37:05;2.17;;;1.20;;
11711;SDS011;5912;51.034;6.984;2024-03-02T00:39:31;1.60;;;1.27;;
11711;SDS011;5912;51.034;6.984;2024-03-02T00:41:57;2.00;;;1.40;;
11711;SDS011;5912;51.034;6.984;2024-03-02T00:44:23;1.45;;;1.20;;
11711;SDS011;5912;51.034;6.984;2024-03-02T00:46:51;2.47;;;1.33;;
11711;SDS011;5912;51.034;6.984;2024-03-02T00:49:21;1.55;;;1.10;;
11711;SDS011;5912;51.034;6.984;2024-03-02T00:51:48;1.60;;;1.10;;
11711;SDS011;5912;51.034;6.984;2024-03-02T00:54:15;1.20;;;1.10;;
11711;SDS011;5912;51.034;6.984;2024-03-02T00:56:45;1.40;;;0.93;;
11711;SDS011;5912;51.034;6.984;2024-03-02T00:59:12;1.38;;;0.93;;
11711;SDS011;5912;51.034;6.984;2024-03-02T01:01:37;1.80;;;1.02;;
11711;SDS011;5912;51.034;6.984;2024-03-02T01:04:03;1.67;;;1.02;;
11711;SDS011;5912;51.034;6.984;2024-03-02T01:06:28;1.92;;;1.20;;
11711;SDS011;5912;51.034;6.984;2024-03-02T01:08:55;0.90;;;0.77;;
11711;SDS011;5912;51.034;6.984;2024-03-02T01:11:20;1.75;;;0.95;;
11711;SDS011;5912;51.034;6.984;2024-03-02T01:13:49;1.10;;;0.93;;
11711;SDS011;5912;51.034;6.984;2024-03-02T01:16:14;2.75;;;1.00;;
11711;SDS011;5912;51.034;6.984;2024-03-02T01:18:41;3.13;;;1.00;;
11711;SDS011;5912;51.034;6.984;2024-03-02T01:21:06;1.27;;;1.00;;
11711;SDS011;5912;51.034;6.984;2024-03-02T01:23:32;1.05;;;0.95;;
11711;SDS011;5912;51.034;6.984;2024-03-02T01:25:59;1.60;;;1.20;;
11711;SDS011;5912;51.034;6.984;2024-03-02T01:28:24;1.70;;;1.02;;
11711;SDS011;5912;51.034;6.984;2024-03-02T01:30:50;1.05;;;0.90;;
11711;SDS011;5912;51.034;6.984;2024-03-02T01:33:19;1.20;;;0.80;;
11711;SDS011;5912;51.034;6.984;2024-03-02T01:35:45;3.70;;;0.93;;
11711;SDS011;5912;51.034;6.984;2024-03-02T01:38:11;1.15;;;0.80;;
11711;SDS011;5912;51.034;6.984;2024-03-02T01:40:37;1.73;;;0.90;;
11711;SDS011;5912;51.034;6.984;2024-03-02T01:43:06;1.70;;;1.00;;
11711;SDS011;5912;51.034;6.984;2024-03-02T01:45:32;1.20;;;0.95;;
11711;SDS011;5912;51.034;6.984;2024-03-02T01:47:58;1.73;;;1.00;;
11711;SDS011;5912;51.034;6.984;2024-03-02T01:50:25;1.27;;;1.00;;
11711;SDS011;5912;51.034;6.984;2024-03-02T01:52:51;1.30;;;0.88;;
11711;SDS011;5912;51.034;6.984;2024-03-02T01:55:17;1.23;;;0.88;;
11711;SDS011;5912;51.034;6.984;2024-03-02T01:57:43;1.50;;;1.30;;
11711;SDS011;5912;51.034;6.984;2024-03-02T02:00:10;1.10;;;0.80;;
11711;SDS011;5912;51.034;6.984;2024-03-02T02:02:36;1.67;;;0.88;;
11711;SDS011;5912;51.034;6.984;2024-03-02T02:05:02;1.10;;;0.80;;
11711;SDS011;5912;51.034;6.984;2024-03-02T02:07:27;1.13;;;0.85;;
11711;SDS011;5912;51.034;6.984;2024-03-02T02:09:53;1.10;;;0.80;;
11711;SDS011;5912;51.034;6.984;2024-03-02T02:12:34;1.67;;;0.80;;
11711;SDS011;5912;51.034;6.984;2024-03-02T02:15:00;1.98;;;0.95;;
11711;SDS011;5912;51.034;6.984;2024-03-02T02:17:25;2.28;;;1.10;;
11711;SDS011;5912;51.034;6.984;2024-03-02T02:19:51;1.02;;;0.90;;
11711;SDS011;5912;51.034;6.984;2024-03-02T02:22:17;2.25;;;0.88;;
11711;SDS011;5912;51.034;6.984;2024-03-02T02:24:43;0.90;;;0.70;;
11711;SDS011;5912;51.034;6.984;2024-03-02T02:27:09;1.40;;;0.70;;
11711;SDS011;5912;51.034;6.984;2024-03-02T02:29:40;2.13;;;0.90;;
11711;SDS011;5912;51.034;6.984;2024-03-02T02:32:06;1.40;;;0.88;;
11711;SDS011;5912;51.034;6.984;2024-03-02T02:34:32;1.48;;;0.80;;
11711;SDS011;5912;51.034;6.984;2024-03-02T02:36:58;1.85;;;0.80;;
11711;SDS011;5912;51.034;6.984;2024-03-02T02:39:24;2.47;;;0.80;;
11711;SDS011;5912;51.034;6.984;2024-03-02T02:41:50;1.42;;;1.15;;
11711;SDS011;5912;51.034;6.984;2024-03-02T02:44:16;2.40;;;1.20;;
11711;SDS011;5912;51.034;6.984;2024-03-02T02:46:41;1.58;;;0.88;;
11711;SDS011;5912;51.034;6.984;2024-03-02T02:49:07;1.40;;;0.95;;
11711;SDS011;5912;51.034;6.984;2024-03-02T02:51:32;0.98;;;0.70;;
11711;SDS011;5912;51.034;6.984;2024-03-02T02:53:58;1.27;;;0.80;;
11711;SDS011;5912;51.034;6.984;2024-03-02T02:56:24;1.60;;;0.88;;
11711;SDS011;5912;51.034;6.984;2024-03-02T02:58:49;1.50;;;0.80;;
11711;SDS011;5912;51.034;6.984;2024-03-02T03:01:15;1.30;;;1.02;;
11711;SDS011;5912;51.034;6.984;2024-03-02T03:03:44;1.67;;;0.90;;
11711;SDS011;5912;51.034;6.984;2024-03-02T03:06:10;2.28;;;1.08;;
11711;SDS011;5912;51.034;6.984;2024-03-02T03:08:36;1.00;;;0.85;;
11711;SDS011;5912;51.034;6.984;2024-03-02T03:11:02;2.33;;;1.10;;
11711;SDS011;5912;51.034;6.984;2024-03-02T03:13:28;1.27;;;0.82;;
11711;SDS011;5912;51.034;6.984;2024-03-02T03:15:53;1.58;;;0.98;;
11711;SDS011;5912;51.034;6.984;2024-03-02T03:18:19;1.33;;;0.90;;
11711;SDS011;5912;51.034;6.984;2024-03-02T03:20:45;1.52;;;1.10;;
11711;SDS011;5912;51.034;6.984;2024-03-02T03:23:10;1.60;;;1.10;;
11711;SDS011;5912;51.034;6.984;2024-03-02T03:25:40;2.17;;;0.98;;
11711;SDS011;5912;51.034;6.984;2024-03-02T03:28:06;1.52;;;0.90;;
11711;SDS011;5912;51.034;6.984;2024-03-02T03:30:31;1.42;;;0.98;;
11711;SDS011;5912;51.034;6.984;2024-03-02T03:32:57;2.30;;;1.10;;
11711;SDS011;5912;51.034;6.984;2024-03-02T03:35:22;1.05;;;0.90;;
11711;SDS011;5912;51.034;6.984;2024-03-02T03:37:48;3.83;;;0.93;;
11711;SDS011;5912;51.034;6.984;2024-03-02T03:40:13;0.80;;;0.80;;
11711;SDS011;5912;51.034;6.984;2024-03-02T03:45:35;1.75;;;0.95;;
11711;SDS011;5912;51.034;6.984;2024-03-02T03:48:02;3.63;;;1.15;;
11711;SDS011;5912;51.034;6.984;2024-03-02T03:50:28;1.13;;;1.00;;
11711;SDS011;5912;51.034;6.984;2024-03-02T03:52:53;1.10;;;0.90;;
11711;SDS011;5912;51.034;6.984;2024-03-02T03:55:19;1.15;;;0.90;;
11711;SDS011;5912;51.034;6.984;2024-03-02T03:57:44;1.80;;;1.05;;
11711;SDS011;5912;51.034;6.984;2024-03-02T04:00:10;1.20;;;1.00;;
11711;SDS011;5912;51.034;6.984;2024-03-02T04:02:36;1.70;;;1.10;;
11711;SDS011;5912;51.034;6.984;2024-03-02T04:05:01;2.58;;;1.02;;
11711;SDS011;5912;51.034;6.984;2024-03-02T04:07:30;1.83;;;0.90;;
11711;SDS011;5912;51.034;6.984;2024-03-02T04:09:55;1.00;;;0.90;;
11711;SDS011;5912;51.034;6.984;2024-03-02T04:12:21;1.35;;;1.15;;
11711;SDS011;5912;51.034;6.984;2024-03-02T04:14:47;1.95;;;1.10;;
11711;SDS011;5912;51.034;6.984;2024-03-02T04:17:12;1.88;;;0.90;;
11711;SDS011;5912;51.034;6.984;2024-03-02T04:19:38;1.30;;;1.02;;
11711;SDS011;5912;51.034;6.984;2024-03-02T04:22:04;1.52;;;1.05;;
11711;SDS011;5912;51.034;6.984;2024-03-02T04:24:29;1.20;;;0.80;;
11711;SDS011;5912;51.034;6.984;2024-03-02T04:26:55;1.30;;;1.00;;
11711;SDS011;5912;51.034;6.984;2024-03-02T04:29:20;2.58;;;1.27;;
11711;SDS011;5912;51.034;6.984;2024-03-02T04:31:46;1.63;;;1.20;;
11711;SDS011;5912;51.034;6.984;2024-03-02T04:34:11;1.23;;;1.00;;
11711;SDS011;5912;51.034;6.984;2024-03-02T04:36:37;0.90;;;0.75;;
11711;SDS011;5912;51.034;6.984;2024-03-02T04:39:12;1.67;;;0.93;;
11711;SDS011;5912;51.034;6.984;2024-03-02T04:41:37;2.83;;;1.00;;
11711;SDS011;5912;51.034;6.984;2024-03-02T04:44:04;1.40;;;0.98;;
11711;SDS011;5912;51.034;6.984;2024-03-02T04:46:29;1.30;;;0.82;;
11711;SDS011;5912;51.034;6.984;2024-03-02T04:48:56;2.35;;;1.00;;
11711;SDS011;5912;51.034;6.984;2024-03-02T04:51:22;1.75;;;1.00;;
11711;SDS011;5912;51.034;6.984;2024-03-02T04:53:48;1.50;;;0.93;;
11711;SDS011;5912;51.034;6.984;2024-03-02T04:56:22;4.25;;;0.90;;
11711;SDS011;5912;51.034;6.984;2024-03-02T04:58:48;1.58;;;0.93;;
11711;SDS011;5912;51.034;6.984;2024-03-02T05:01:13;1.30;;;0.98;;
11711;SDS011;5912;51.034;6.984;2024-03-02T05:03:39;1.48;;;0.80;;
11711;SDS011;5912;51.034;6.984;2024-03-02T05:06:04;1.10;;;0.90;;
11711;SDS011;5912;51.034;6.984;2024-03-02T05:08:30;1.92;;;0.95;;
11711;SDS011;5912;51.034;6.984;2024-03-02T05:10:55;1.50;;;1.00;;
11711;SDS011;5912;51.034;6.984;2024-03-02T05:13:40;2.45;;;1.00;;
11711;SDS011;5912;51.034;6.984;2024-03-02T05:16:06;1.38;;;1.02;;
11711;SDS011;5912;51.034;6.984;2024-03-02T05:18:31;1.67;;;0.63;;
11711;SDS011;5912;51.034;6.984;2024-03-02T05:20:56;1.00;;;0.90;;
11711;SDS011;5912;51.034;6.984;2024-03-02T05:23:22;2.20;;;1.02;;
11711;SDS011;5912;51.034;6.984;2024-03-02T05:25:47;1.80;;;1.48;;
11711;SDS011;5912;51.034;6.984;2024-03-02T05:28:13;1.83;;;1.20;;
11711;SDS011;5912;51.034;6.984;2024-03-02T05:30:39;0.98;;;0.80;;
11711;SDS011;5912;51.034;6.984;2024-03-02T05:33:08;1.48;;;1.00;;
11711;SDS011;5912;51.034;6.984;2024-03-02T05:35:35;1.60;;;1.20;;
11711;SDS011;5912;51.034;6.984;2024-03-02T05:38:01;2.20;;;1.23;;
11711;SDS011;5912;51.034;6.984;2024-03-02T05:40:26;1.50;;;1.00;;
11711;SDS011;5912;51.034;6.984;2024-03-02T05:42:51;2.03;;;1.20;;
11711;SDS011;5912;51.034;6.984;2024-03-02T05:45:17;2.13;;;1.30;;
11711;SDS011;5912;51.034;6.984;2024-03-02T05:47:43;1.48;;;1.13;;
11711;SDS011;5912;51.034;6.984;2024-03-02T05:50:08;2.25;;;1.27;;
11711;SDS011;5912;51.034;6.984;2024-03-02T05:52:34;2.38;;;1.10;;
11711;SDS011;5912;51.034;6.984;2024-03-02T05:54:59;1.13;;;0.93;;
11711;SDS011;5912;51.034;6.984;2024-03-02T05:57:25;1.77;;;1.60;;
11711;SDS011;5912;51.034;6.984;2024-03-02T06:00:12;1.37;;;1.07;;
11711;SDS011;5912;51.034;6.984;2024-03-02T06:02:41;2.13;;;1.25;;
11711;SDS011;5912;51.034;6.984;2024-03-02T06:05:07;1.60;;;0.90;;
11711;SDS011;5912;51.034;6.984;2024-03-02T06:07:33;2.97;;;1.50;;
11711;SDS011;5912;51.034;6.984;2024-03-02T06:09:58;1.80;;;1.10;;
11711;SDS011;5912;51.034;6.984;2024-03-02T06:12:24;1.88;;;1.23;;
11711;SDS011;5912;51.034;6.984;2024-03-02T06:14:50;1.83;;;1.20;;
11711;SDS011;5912;51.034;6.984;2024-03-02T06:17:15;1.80;;;1.20;;
11711;SDS011;5912;51.034;6.984;2024-03-02T06:19:41;2.13;;;1.30;;
11711;SDS011;5912;51.034;6.984;2024-03-02T06:22:07;1.67;;;1.23;;
11711;SDS011;5912;51.034;6.984;2024-03-02T06:24:35;1.93;;;1.47;;
11711;SDS011;5912;51.034;6.984;2024-03-02T06:27:11;1.30;;;1.20;;
11711;SDS011;5912;51.034;6.984;2024-03-02T06:29:37;3.65;;;1.40;;
11711;SDS011;5912;51.034;6.984;2024-03-02T06:32:03;2.40;;;1.20;;
11711;SDS011;5912;51.034;6.984;2024-03-02T06:34:28;2.95;;;1.45;;
11711;SDS011;5912;51.034;6.984;2024-03-02T06:36:54;2.63;;;1.33;;
11711;SDS011;5912;51.034;6.984;2024-03-02T06:39:20;1.95;;;1.48;;
11711;SDS011;5912;51.034;6.984;2024-03-02T06:41:46;2.85;;;1.50;;
11711;SDS011;5912;51.034;6.984;2024-03-02T06:44:12;2.17;;;1.60;;
11711;SDS011;5912;51.034;6.984;2024-03-02T06:46:38;3.05;;;1.40;;
11711;SDS011;5912;51.034;6.984;2024-03-02T06:49:04;1.60;;;1.30;;
11711;SDS011;5912;51.034;6.984;2024-03-02T06:51:30;1.92;;;1.63;;
11711;SDS011;5912;51.034;6.984;2024-03-02T06:53:55;2.45;;;1.58;;
11711;SDS011;5912;51.034;6.984;2024-03-02T06:56:21;1.88;;;1.35;;
11711;SDS011;5912;51.034;6.984;2024-03-02T06:58:47;1.80;;;1.48;;
11711;SDS011;5912;51.034;6.984;2024-03-02T07:01:13;1.92;;;1.40;;
11711;SDS011;5912;51.034;6.984;2024-03-02T07:03:39;2.28;;;1.60;;
11711;SDS011;5912;51.034;6.984;2024-03-02T07:06:04;5.03;;;1.80;;
11711;SDS011;5912;51.034;6.984;2024-03-02T07:08:30;1.92;;;1.55;;
11711;SDS011;5912;51.034;6.984;2024-03-02T07:10:56;2.40;;;1.40;;
11711;SDS011;5912;51.034;6.984;2024-03-02T07:13:22;2.58;;;1.52;;
11711;SDS011;5912;51.034;6.984;2024-03-02T07:15:48;2.80;;;1.77;;
11711;SDS011;5912;51.034;6.984;2024-03-02T07:18:31;2.08;;;1.65;;
11711;SDS011;5912;51.034;6.984;2024-03-02T07:20:58;3.28;;;1.83;;
11711;SDS011;5912;51.034;6.984;2024-03-02T07:23:25;1.80;;;1.33;;
11711;SDS011;5912;51.034;6.984;2024-03-02T07:25:55;2.75;;;1.85;;
11711;SDS011;5912;51.034;6.984;2024-03-02T07:28:21;2.13;;;1.50;;
11711;SDS011;5912;51.034;6.984;2024-03-02T07:30:57;3.28;;;1.40;;
11711;SDS011;5912;51.034;6.984;2024-03-02T07:33:23;2.33;;;1.60;;
11711;SDS011;5912;51.034;6.984;2024-03-02T07:35:49;3.17;;;1.55;;
11711;SDS011;5912;51.034;6.984;2024-03-02T07:38:15;2.70;;;1.67;;
11711;SDS011;5912;51.034;6.984;2024-03-02T07:40:40;3.42;;;2.00;;
11711;SDS011;5912;51.034;6.984;2024-03-02T07:43:06;3.10;;;2.22;;
11711;SDS011;5912;51.034;6.984;2024-03-02T07:45:31;3.05;;;2.00;;
11711;SDS011;5912;51.034;6.984;2024-03-02T07:47:57;3.40;;;1.75;;
11711;SDS011;5912;51.034;6.984;2024-03-02T07:50:23;4.25;;;2.28;;
11711;SDS011;5912;51.034;6.984;2024-03-02T07:52:48;2.33;;;2.00;;
11711;SDS011;5912;51.034;6.984;2024-03-02T07:55:14;3.10;;;2.03;;
11711;SDS011;5912;51.034;6.984;2024-03-02T08:00:23;2.70;;;1.80;;
11711;SDS011;5912;51.034;6.984;2024-03-02T08:02:50;3.00;;;1.80;;
11711;SDS011;5912;51.034;6.984;2024-03-02T08:05:17;2.47;;;1.80;;
11711;SDS011;5912;51.034;6.984;2024-03-02T08:07:46;3.97;;;1.90;;
11711;SDS011;5912;51.034;6.984;2024-03-02T08:10:12;3.13;;;1.67;;
11711;SDS011;5912;51.034;6.984;2024-03-02T08:12:38;2.65;;;1.90;;
11711;SDS011;5912;51.034;6.984;2024-03-02T08:15:04;3.00;;;1.85;;
11711;SDS011;5912;51.034;6.984;2024-03-02T08:17:30;2.47;;;1.80;;
11711;SDS011;5912;51.034;6.984;2024-03-02T08:19:55;4.57;;;2.30;;
11711;SDS011;5912;51.034;6.984;2024-03-02T08:22:21;4.22;;;2.30;;
11711;SDS011;5912;51.034;6.984;2024-03-02T08:24:48;3.65;;;1.92;;
11711;SDS011;5912;51.034;6.984;2024-03-02T08:27:13;3.20;;;1.70;;
11711;SDS011;5912;51.034;6.984;2024-03-02T08:29:39;2.85;;;1.48;;
11711;SDS011;5912;51.034;6.984;2024-03-02T08:32:06;3.17;;;1.67;;
11711;SDS011;5912;51.034;6.984;2024-03-02T08:34:32;4.70;;;2.05;;
11711;SDS011;5912;51.034;6.984;2024-03-02T08:37:00;2.42;;;1.60;;
11711;SDS011;5912;51.034;6.984;2024-03-02T08:39:27;4.07;;;2.35;;
11711;SDS011;5912;51.034;6.984;2024-03-02T08:41:52;5.18;;;2.60;;
11711;SDS011;5912;51.034;6.984;2024-03-02T08:44:18;3.08;;;2.00;;
11711;SDS011;5912;51.034;6.984;2024-03-02T08:46:44;5.68;;;2.80;;
11711;SDS011;5912;51.034;6.984;2024-03-02T08:49:10;7.68;;;3.30;;
11711;SDS011;5912;51.034;6.984;2024-03-02T08:51:35;7.00;;;2.75;;
11711;SDS011;5912;51.034;6.984;2024-03-02T08:54:01;5.10;;;2.67;;
11711;SDS011;5912;51.034;6.984;2024-03-02T08:56:26;6.13;;;3.35;;
11711;SDS011;5912;51.034;6.984;2024-03-02T08:58:52;5.28;;;2.72;;
11711;SDS011;5912;51.034;6.984;2024-03-02T09:01:18;3.80;;;2.05;;
11711;SDS011;5912;51.034;6.984;2024-03-02T09:03:47;6.55;;;2.60;;
11711;SDS011;5912;51.034;6.984;2024-03-02T09:06:14;9.40;;;3.88;;
11711;SDS011;5912;51.034;6.984;2024-03-02T09:08:41;2.35;;;1.70;;
11711;SDS011;5912;51.034;6.984;2024-03-02T09:11:08;2.17;;;1.60;;
11711;SDS011;5912;51.034;6.984;2024-03-02T09:13:34;2.95;;;1.60;;
11711;SDS011;5912;51.034;6.984;2024-03-02T09:16:00;8.50;;;3.08;;
11711;SDS011;5912;51.034;6.984;2024-03-02T09:18:26;3.15;;;2.03;;
11711;SDS011;5912;51.034;6.984;2024-03-02T09:20:52;7.63;;;2.10;;
11711;SDS011;5912;51.034;6.984;2024-03-02T09:26:09;6.95;;;2.88;;
11711;SDS011;5912;51.034;6.984;2024-03-02T09:28:34;4.40;;;2.28;;
11711;SDS011;5912;51.034;6.984;2024-03-02T09:31:00;4.22;;;1.77;;
11711;SDS011;5912;51.034;6.984;2024-03-02T09:33:26;5.38;;;2.80;;
11711;SDS011;5912;51.034;6.984;2024-03-02T09:35:51;3.85;;;1.90;;
11711;SDS011;5912;51.034;6.984;2024-03-02T09:38:17;4.10;;;2.00;;
11711;SDS011;5912;51.034;6.984;2024-03-02T09:40:42;4.88;;;2.63;;
11711;SDS011;5912;51.034;6.984;2024-03-02T09:43:08;4.93;;;2.47;;
11711;SDS011;5912;51.034;6.984;2024-03-02T09:45:34;4.47;;;2.17;;
11711;SDS011;5912;51.034;6.984;2024-03-02T09:48:00;4.90;;;2.20;;
11711;SDS011;5912;51.034;6.984;2024-03-02T09:50:25;3.90;;;1.80;;
11711;SDS011;5912;51.034;6.984;2024-03-02T09:52:51;5.05;;;2.28;;
11711;SDS011;5912;51.034;6.984;2024-03-02T09:55:18;6.57;;;2.22;;
11711;SDS011;5912;51.034;6.984;2024-03-02T09:57:45;4.88;;;1.50;;
11711;SDS011;5912;51.034;6.984;2024-03-02T10:00:11;2.28;;;1.00;;
11711;SDS011;5912;51.034;6.984;2024-03-02T10:02:40;1.48;;;0.88;;
11711;SDS011;5912;51.034;6.984;2024-03-02T10:05:07;2.42;;;1.50;;
11711;SDS011;5912;51.034;6.984;2024-03-02T10:07:33;3.33;;;1.60;;
11711;SDS011;5912;51.034;6.984;2024-03-02T10:10:00;4.50;;;1.48;;
11711;SDS011;5912;51.034;6.984;2024-03-02T10:12:40;1.98;;;1.00;;
11711;SDS011;5912;51.034;6.984;2024-03-02T10:15:06;4.40;;;2.03;;
11711;SDS011;5912;51.034;6.984;2024-03-02T10:17:33;5.57;;;1.70;;
11711;SDS011;5912;51.034;6.984;2024-03-02T10:19:58;4.78;;;1.88;;
11711;SDS011;5912;51.034;6.984;2024-03-02T10:22:24;7.18;;;2.25;;
11711;SDS011;5912;51.034;6.984;2024-03-02T10:24:51;5.57;;;2.45;;
11711;SDS011;5912;51.034;6.984;2024-03-02T10:27:19;4.18;;;1.40;;
11711;SDS011;5912;51.034;6.984;2024-03-02T10:29:48;5.75;;;2.42;;
11711;SDS011;5912;51.034;6.984;2024-03-02T10:32:15;3.95;;;1.67;;
11711;SDS011;5912;51.034;6.984;2024-03-02T10:34:42;2.83;;;1.30;;
11711;SDS011;5912;51.034;6.984;2024-03-02T10:37:10;3.72;;;1.48;;
11711;SDS011;5912;51.034;6.984;2024-03-02T10:39:36;5.13;;;2.72;;
11711;SDS011;5912;51.034;6.984;2024-03-02T10:42:05;5.63;;;3.10;;
11711;SDS011;5912;51.034;6.984;2024-03-02T10:44:32;4.72;;;2.47;;
11711;SDS011;5912;51.034;6.984;2024-03-02T10:47:02;5.22;;;2.15;;
11711;SDS011;5912;51.034;6.984;2024-03-02T10:49:32;4.13;;;1.58;;
11711;SDS011;5912;51.034;6.984;2024-03-02T10:51:58;3.60;;;1.10;;
11711;SDS011;5912;51.034;6.984;2024-03-02T10:54:25;3.22;;;1.35;;
11711;SDS011;5912;51.034;6.984;2024-03-02T10:56:52;2.28;;;1.20;;
11711;SDS011;5912;51.034;6.984;2024-03-02T10:59:28;6.50;;;2.20;;
11711;SDS011;5912;51.034;6.984;2024-03-02T11:01:58;4.00;;;2.53;;
11711;SDS011;5912;51.034;6.984;2024-03-02T11:04:25;3.20;;;1.75;;
11711;SDS011;5912;51.034;6.984;2024-03-02T11:06:54;3.47;;;1.42;;
11711;SDS011;5912;51.034;6.984;2024-03-02T11:09:33;6.00;;;1.95;;
11711;SDS011;5912;51.034;6.984;2024-03-02T11:12:19;3.38;;;1.40;;
11711;SDS011;5912;51.034;6.984;2024-03-02T11:14:53;8.07;;;3.10;;
11711;SDS011;5912;51.034;6.984;2024-03-02T11:17:21;5.30;;;2.22;;
11711;SDS011;5912;51.034;6.984;2024-03-02T11:19:48;2.50;;;1.30;;
11711;SDS011;5912;51.034;6.984;2024-03-02T11:22:14;1.92;;;1.20;;
11711;SDS011;5912;51.034;6.984;2024-03-02T11:24:50;3.08;;;1.50;;
11711;SDS011;5912;51.034;6.984;2024-03-02T11:33:01;1.63;;;1.15;;
11711;SDS011;5912;51.034;6.984;2024-03-02T11:35:35;1.77;;;0.90;;
11711;SDS011;5912;51.034;6.984;2024-03-02T11:38:02;2.88;;;1.40;;
11711;SDS011;5912;51.034;6.984;2024-03-02T11:40:28;1.88;;;1.02;;
11711;SDS011;5912;51.034;6.984;2024-03-02T11:42:55;2.67;;;1.30;;
11711;SDS011;5912;51.034;6.984;2024-03-02T11:45:24;2.47;;;1.38;;
11711;SDS011;5912;51.034;6.984;2024-03-02T11:47:54;1.35;;;0.90;;
11711;SDS011;5912;51.034;6.984;2024-03-02T11:50:30;1.85;;;1.00;;
11711;SDS011;5912;51.034;6.984;2024-03-02T11:53:05;1.95;;;0.98;;
11711;SDS011;5912;51.034;6.984;2024-03-02T11:55:31;3.20;;;1.33;;
11711;SDS011;5912;51.034;6.984;2024-03-02T11:58:01;4.88;;;1.80;;
11711;SDS011;5912;51.034;6.984;2024-03-02T12:00:30;1.55;;;1.10;;
11711;SDS011;5912;51.034;6.984;2024-03-02T12:03:00;3.53;;;1.17;;
11711;SDS011;5912;51.034;6.984;2024-03-02T12:05:27;3.22;;;1.67;;
11711;SDS011;5912;51.034;6.984;2024-03-02T12:07:57;5.85;;;2.03;;
11711;SDS011;5912;51.034;6.984;2024-03-02T12:10:24;5.55;;;2.40;;
11711;SDS011;5912;51.034;6.984;2024-03-02T12:15:38;2.45;;;1.20;;
11711;SDS011;5912;51.034;6.984;2024-03-02T12:18:04;3.67;;;1.42;;
11711;SDS011;5912;51.034;6.984;2024-03-02T12:20:32;1.80;;;1.10;;
11711;SDS011;5912;51.034;6.984;2024-03-02T12:22:58;1.85;;;1.15;;
11711;SDS011;5912;51.034;6.984;2024-03-02T12:25:25;1.45;;;0.77;;
11711;SDS011;5912;51.034;6.984;2024-03-02T12:27:53;1.25;;;0.90;;
11711;SDS011;5912;51.034;6.984;2024-03-02T12:30:20;1.52;;;0.82;;
11711;SDS011;5912;51.034;6.984;2024-03-02T12:32:46;2.05;;;0.90;;
11711;SDS011;5912;51.034;6.984;2024-03-02T12:35:13;1.77;;;0.75;;
11711;SDS011;5912;51.034;6.984;2024-03-02T12:37:45;1.55;;;0.90;;
11711;SDS011;5912;51.034;6.984;2024-03-02T12:40:12;1.23;;;0.80;;
11711;SDS011;5912;51.034;6.984;2024-03-02T12:42:39;2.25;;;1.00;;
11711;SDS011;5912;51.034;6.984;2024-03-02T12:45:06;1.55;;;0.90;;
11711;SDS011;5912;51.034;6.984;2024-03-02T12:47:33;1.33;;;0.95;;
11711;SDS011;5912;51.034;6.984;2024-03-02T12:49:59;1.88;;;0.80;;
11711;SDS011;5912;51.034;6.984;2024-03-02T12:52:24;1.55;;;0.75;;
11711;SDS011;5912;51.034;6.984;2024-03-02T12:54:50;1.15;;;0.93;;
11711;SDS011;5912;51.034;6.984;2024-03-02T12:57:20;1.38;;;0.90;;
11711;SDS011;5912;51.034;6.984;2024-03-02T12:59:46;1.95;;;0.98;;
11711;SDS011;5912;51.034;6.984;2024-03-02T13:02:18;1.48;;;0.90;;
11711;SDS011;5912;51.034;6.984;2024-03-02T13:04:44;1.27;;;0.80;;
11711;SDS011;5912;51.034;6.984;2024-03-02T13:07:17;1.90;;;0.93;;
11711;SDS011;5912;51.034;6.984;2024-03-02T13:09:45;1.90;;;0.70;;
11711;SDS011;5912;51.034;6.984;2024-03-02T13:15:23;1.13;;;0.75;;
11711;SDS011;5912;51.034;6.984;2024-03-02T13:17:48;1.25;;;0.88;;
11711;SDS011;5912;51.034;6.984;2024-03-02T13:20:15;0.95;;;0.80;;
11711;SDS011;5912;51.034;6.984;2024-03-02T13:22:43;1.35;;;1.00;;
11711;SDS011;5912;51.034;6.984;2024-03-02T13:25:09;2.05;;;0.90;;
11711;SDS011;5912;51.034;6.984;2024-03-02T13:27:35;0.73;;;0.70;;
11711;SDS011;5912;51.034;6.984;2024-03-02T13:30:01;1.10;;;0.80;;
11711;SDS011;5912;51.034;6.984;2024-03-02T13:32:28;1.45;;;0.70;;
11711;SDS011;5912;51.034;6.984;2024-03-02T13:34:53;2.65;;;1.08;;
11711;SDS011;5912;51.034;6.984;2024-03-02T13:37:20;0.98;;;0.80;;
11711;SDS011;5912;51.034;6.984;2024-03-02T13:39:46;1.67;;;0.88;;
11711;SDS011;5912;51.034;6.984;2024-03-02T13:42:12;0.60;;;0.60;;
11711;SDS011;5912;51.034;6.984;2024-03-02T13:44:40;1.00;;;0.80;;
11711;SDS011;5912;51.034;6.984;2024-03-02T13:47:06;1.85;;;0.85;;
11711;SDS011;5912;51.034;6.984;2024-03-02T13:49:32;1.92;;;1.00;;
11711;SDS011;5912;51.034;6.984;2024-03-02T13:52:08;1.02;;;0.85;;
11711;SDS011;5912;51.034;6.984;2024-03-02T13:54:38;1.20;;;0.93;;
11711;SDS011;5912;51.034;6.984;2024-03-02T13:57:05;1.50;;;0.73;;
11711;SDS011;5912;51.034;6.984;2024-03-02T13:59:32;2.10;;;0.85;;
11711;SDS011;5912;51.034;6.984;2024-03-02T14:01:59;2.55;;;1.00;;
11711;SDS011;5912;51.034;6.984;2024-03-02T14:04:24;0.90;;;0.80;;
11711;SDS011;5912;51.034;6.984;2024-03-02T14:06:50;2.17;;;0.75;;
11711;SDS011;5912;51.034;6.984;2024-03-02T14:09:15;1.35;;;0.60;;
11711;SDS011;5912;51.034;6.984;2024-03-02T14:11:41;2.03;;;0.90;;
11711;SDS011;5912;51.034;6.984;2024-03-02T14:14:06;0.80;;;0.80;;
11711;SDS011;5912;51.034;6.984;2024-03-02T14:16:32;2.20;;;1.08;;
11711;SDS011;5912;51.034;6.984;2024-03-02T14:18:57;1.02;;;0.77;;
11711;SDS011;5912;51.034;6.984;2024-03-02T14:21:24;0.73;;;0.65;;
11711;SDS011;5912;51.034;6.984;2024-03-02T14:23:50;1.33;;;0.80;;
11711;SDS011;5912;51.034;6.984;2024-03-02T14:26:15;1.30;;;0.80;;
11711;SDS011;5912;51.034;6.984;2024-03-02T14:28:41;1.77;;;0.77;;
11711;SDS011;5912;51.034;6.984;2024-03-02T14:31:06;1.45;;;0.88;;
11711;SDS011;5912;51.034;6.984;2024-03-02T14:33:31;1.50;;;0.90;;
11711;SDS011;5912;51.034;6.984;2024-03-02T14:35:57;1.55;;;0.93;;
11711;SDS011;5912;51.034;6.984;2024-03-02T14:38:22;1.50;;;0.90;;
11711;SDS011;5912;51.034;6.984;2024-03-02T14:40:48;1.98;;;0.90;;
11711;SDS011;5912;51.034;6.984;2024-03-02T14:43:13;1.38;;;0.80;;
11711;SDS011;5912;51.034;6.984;2024-03-02T14:45:39;1.88;;;0.80;;
11711;SDS011;5912;51.034;6.984;2024-03-02T14:48:04;0.90;;;0.70;;
11711;SDS011;5912;51.034;6.984;2024-03-02T14:50:30;1.70;;;0.93;;
11711;SDS011;5912;51.034;6.984;2024-03-02T14:52:56;1.27;;;0.80;;
11711;SDS011;5912;51.034;6.984;2024-03-02T14:58:32;0.98;;;0.82;;
11711;SDS011;5912;51.034;6.984;2024-03-02T15:00:57;2.80;;;0.90;;
11711;SDS011;5912;51.034;6.984;2024-03-02T15:03:23;1.00;;;0.73;;
11711;SDS011;5912;51.034;6.984;2024-03-02T15:05:49;0.90;;;0.70;;
11711;SDS011;5912;51.034;6.984;2024-03-02T15:08:17;1.00;;;0.85;;
11711;SDS011;5912;51.034;6.984;2024-03-02T15:10:42;0.80;;;0.80;;
11711;SDS011;5912;51.034;6.984;2024-03-02T15:13:09;1.23;;;0.85;;
11711;SDS011;5912;51.034;6.984;2024-03-02T15:15:34;0.90;;;0.80;;
11711;SDS011;5912;51.034;6.984;2024-03-02T15:18:01;1.33;;;0.80;;
11711;SDS011;5912;51.034;6.984;2024-03-02T15:20:27;0.88;;;0.70;;